首页
METAR-TAF:

METAR-TAF

机场 :

諾福克國際機場

諾福克, 弗吉尼亚州, 美国

纬度: 36-54-13N, 经度: 076-11-31W, 海拔: 8米

当前天气观测

该预报发布于13分钟前的09:51 UTC
风速4节,风向
温度 8°C
湿度 93%
气压 1024 hPa
能見度: 4.8公里
散云层高于400英尺
多云层高于2200英尺
阴天层高于3600英尺
雨, 轻雾

METAR: KORF 150951Z 01004KT 3SM RA BR SCT004 BKN022 OVC036 08/07 A3024 RMK AO2 RAE01B06 SLP241 P0003 T00830067

时间: 05:04 (10:04 UTC)

预报

该预报发布于4小时和24分钟前的05:40 UTC
预报有效从15日的 06点(UTC)到 16日的 06点(UTC)
风速8节,风向
能見度: 10公里
阴天层高于3500英尺
附近有阵雨
从 15日的 0700点(UTC)
风速8节,风向
能見度: 8.0公里
阴天层高于1500英尺
小阵雨, 轻雾
从 15日的 0900点(UTC)
风速10节,风向
能見度: 4.8公里
阴天层高于600英尺
小阵雨
从 15日的 1500点(UTC)
风速12节,风向
能見度: 8.0公里
阴天层高于1000英尺
小阵雨
从 15日的 2100点(UTC)
风速13节,风向,有时为21节阵风
能見度: 10公里
阴天层高于1500英尺
从 16日的 0300点(UTC)
风速20节,风向,有时为30节阵风
能見度: 10公里
阴天层高于3000英尺

TAF: KORF 150540Z 1506/1606 36008KT P6SM VCSH OVC035 FM150700 01008KT 5SM -SHRA BR OVC015 FM150900 01010KT 3SM -SHRA OVC006 FM151500 01012KT 5SM -SHRA OVC010 FM152100 01013G21KT P6SM OVC015 FM160300 01020G30KT P6SM OVC030

超过4000个机场的气象观测和天气预报(METAR&TAF报告)。

可查询的气象台以黄色和红色小点在地图上表示。

将鼠标移到小点上方,可查看气象台名称。

然后点击查看天气观测和预报。

如需切换地图:点击带黑十字的绿色按钮放大地图;点击带横线的绿色按钮缩小地图;或者点击绿色箭头查看邻近地区的地图。


METAR-TAF: